createdAt,value
2018-07-28T00:09:07.765Z,31.10
2018-07-28T00:19:10.853Z,31.09
2018-07-28T00:29:14.027Z,31.08
2018-07-28T00:39:17.201Z,31.01
2018-07-28T00:49:20.297Z,31.04
2018-07-28T00:59:23.455Z,31.01
2018-07-28T01:09:26.609Z,30.99
2018-07-28T01:19:29.735Z,30.92
2018-07-28T01:29:32.842Z,30.94
2018-07-28T01:39:35.977Z,30.91
2018-07-28T01:49:39.122Z,30.88
2018-07-28T01:59:42.314Z,30.86
2018-07-28T02:09:45.451Z,30.87
2018-07-28T02:19:49.022Z,30.88
2018-07-28T02:29:52.750Z,30.77
2018-07-28T02:39:55.901Z,30.78
2018-07-28T02:49:59.736Z,30.78
2018-07-28T03:00:02.771Z,30.75
2018-07-28T03:10:06.092Z,30.70
2018-07-28T03:20:09.221Z,30.69
2018-07-28T03:30:12.414Z,30.65
2018-07-28T03:40:15.694Z,30.64
2018-07-28T03:50:18.989Z,30.61
2018-07-28T04:00:22.049Z,30.60
2018-07-28T04:10:25.203Z,30.61
2018-07-28T04:20:28.638Z,30.56
2018-07-28T04:30:31.707Z,30.56
2018-07-28T04:40:34.774Z,30.58
2018-07-28T04:50:38.969Z,30.57
2018-07-28T05:00:42.051Z,30.59
2018-07-28T05:10:45.202Z,30.54
2018-07-28T05:20:48.341Z,30.54
2018-07-28T05:30:52.213Z,30.57
2018-07-28T05:40:55.498Z,30.57
2018-07-28T05:50:58.569Z,30.59
2018-07-28T06:01:01.723Z,30.56
2018-07-28T06:11:05.908Z,30.70
2018-07-28T06:21:09.045Z,30.74
2018-07-28T06:31:12.156Z,30.78
2018-07-28T06:41:15.325Z,30.73
2018-07-28T06:59:19.684Z,31.38
2018-07-28T07:09:22.254Z,31.53
2018-07-28T07:19:24.735Z,31.54
2018-07-28T07:29:27.220Z,31.59
2018-07-28T07:39:29.848Z,31.80
2018-07-28T07:49:32.276Z,31.76
2018-07-28T07:59:34.812Z,31.92
2018-07-28T08:09:37.330Z,31.78
2018-07-28T08:19:39.934Z,31.92
2018-07-28T08:29:42.374Z,31.92
2018-07-28T08:39:45.072Z,31.88
2018-07-28T08:49:47.399Z,31.97
2018-07-28T08:59:50.037Z,31.99
2018-07-28T09:09:52.856Z,32.08
2018-07-28T09:19:55.469Z,32.15
2018-07-28T09:29:57.957Z,32.18
2018-07-28T09:40:00.467Z,32.29
2018-07-28T09:50:03.034Z,32.19
2018-07-28T10:00:05.566Z,32.41
2018-07-28T10:10:08.053Z,32.53
2018-07-28T10:20:10.614Z,32.66
2018-07-28T10:30:13.127Z,32.73
2018-07-28T10:40:15.790Z,32.85
2018-07-28T10:50:18.142Z,32.49
2018-07-28T11:00:21.744Z,32.61
2018-07-28T11:10:24.249Z,32.47
2018-07-28T11:20:26.762Z,32.37
2018-07-28T11:30:29.419Z,32.47
2018-07-28T11:40:37.329Z,32.47
2018-07-28T11:50:39.869Z,32.26
2018-07-28T12:00:49.044Z,32.32
2018-07-28T12:10:52.061Z,32.61
2018-07-28T12:21:17.150Z,32.61
2018-07-28T12:31:42.753Z,32.64
2018-07-28T12:41:48.402Z,32.60
2018-07-28T12:51:50.882Z,32.34
2018-07-28T13:01:53.249Z,32.11
2018-07-28T13:11:55.870Z,32.08
2018-07-28T13:22:07.152Z,32.12
2018-07-28T13:32:14.074Z,32.14
2018-07-28T13:42:16.521Z,32.11
2018-07-28T13:52:24.117Z,32.23
2018-07-28T14:02:27.080Z,31.25
2018-07-28T14:12:29.590Z,32.80
2018-07-28T14:22:32.131Z,33.15
2018-07-28T14:32:34.664Z,33.26
2018-07-28T14:42:37.197Z,33.43
2018-07-28T14:52:39.704Z,33.58
2018-07-28T15:02:42.183Z,33.41
2018-07-28T15:12:44.574Z,33.50
2018-07-28T15:22:47.072Z,33.33
2018-07-28T15:32:49.621Z,33.42
2018-07-28T15:42:52.083Z,33.23
2018-07-28T15:52:54.640Z,33.32
2018-07-28T16:02:57.163Z,33.35
2018-07-28T16:12:59.649Z,33.12
2018-07-28T16:23:02.107Z,33.15
2018-07-28T16:33:04.559Z,33.01
2018-07-28T16:43:07.050Z,32.97
2018-07-28T16:53:09.604Z,33.01
2018-07-28T17:03:12.300Z,33.13
2018-07-28T17:13:14.901Z,33.23
2018-07-28T17:23:17.372Z,32.97
2018-07-28T17:33:19.949Z,32.74
2018-07-28T17:43:22.443Z,32.62
2018-07-28T17:53:24.992Z,32.52
2018-07-28T18:03:27.497Z,32.95
2018-07-28T18:13:30.023Z,32.75
2018-07-28T18:23:32.608Z,32.64
2018-07-28T18:33:35.034Z,33.00
2018-07-28T18:43:37.632Z,32.67
2018-07-28T18:53:40.317Z,32.82
2018-07-28T19:03:42.994Z,32.90
2018-07-28T19:13:50.853Z,32.88
2018-07-28T19:23:58.601Z,32.71
2018-07-28T19:34:01.057Z,32.68
2018-07-28T19:44:03.631Z,32.63
2018-07-28T19:54:06.221Z,32.57
2018-07-28T20:04:08.624Z,31.98
2018-07-28T20:14:11.244Z,31.77
2018-07-28T20:24:13.649Z,32.53
2018-07-28T20:34:15.988Z,32.52
2018-07-28T20:44:18.537Z,32.57
2018-07-28T20:54:21.041Z,32.48
2018-07-28T21:04:23.572Z,32.40
2018-07-28T21:14:26.070Z,32.30
2018-07-28T21:24:28.456Z,32.29
2018-07-28T21:34:31.318Z,32.29
2018-07-28T21:44:33.883Z,32.28
2018-07-28T21:54:37.058Z,32.29
2018-07-28T22:04:40.532Z,31.59
2018-07-28T22:14:42.923Z,31.57
2018-07-28T22:24:45.446Z,31.45
2018-07-28T22:34:47.926Z,31.45
2018-07-28T22:44:50.305Z,31.39
2018-07-28T22:54:52.783Z,31.44
2018-07-28T23:04:55.119Z,31.09
2018-07-28T23:14:57.611Z,31.12
2018-07-28T23:25:00.019Z,31.24
2018-07-28T23:35:02.535Z,31.13
2018-07-28T23:45:05.294Z,31.03
2018-07-28T23:55:07.722Z,30.87
